Time;durP1;ratioP1;P1;durP2;ratioP2;P2;SDS_P1;SDS_P2;PMS_P1;PMS_P2;Temp;Humidity;BMP_temperature;BMP_pressure;BME280_temperature;BME280_humidity;BME280_pressure;Samples;Min_cycle;Max_cycle;Signal;HPM_P1;HPM_P2
2023/03/23 00:02:25;;;;;;;11.00;10.00;;;13.20;92.30;;;15.42;66.98;100208.94;5054539;28;20198;-62
2023/03/23 00:04:52;;;;;;;10.87;9.97;;;13.30;92.20;;;15.49;66.38;100201.75;5070663;28;20213;-62
2023/03/23 00:07:21;;;;;;;10.83;9.93;;;13.20;92.20;;;15.40;66.37;100176.50;5053782;28;20190;-60
2023/03/23 00:09:52;;;;;;;10.90;9.87;;;13.20;92.30;;;15.42;67.07;100169.16;5057796;28;20209;-62
2023/03/23 00:12:21;;;;;;;9.57;8.73;;;13.20;92.30;;;15.41;66.75;100159.56;5054474;28;20198;-58
2023/03/23 00:14:47;;;;;;;10.50;9.60;;;13.20;92.20;;;15.48;66.60;100181.53;5066315;28;20278;-62
2023/03/23 00:17:14;;;;;;;11.40;10.23;;;13.20;92.20;;;15.56;66.45;100173.31;5074680;28;20197;-61
2023/03/23 00:19:46;;;;;;;10.93;10.03;;;13.20;92.30;;;15.57;66.29;100190.84;5075608;28;20232;-59
2023/03/23 00:22:14;;;;;;;10.53;9.57;;;13.20;92.20;;;15.64;65.72;100188.94;5075462;28;20197;-63
2023/03/23 00:24:41;;;;;;;11.33;10.30;;;13.30;92.20;;;15.67;65.80;100185.81;5068095;28;20601;-61
2023/03/23 00:27:08;;;;;;;11.20;10.20;;;13.20;92.10;;;15.59;65.96;100180.84;5055389;28;20237;-61
2023/03/23 00:29:35;;;;;;;11.93;10.83;;;13.20;92.00;;;15.54;66.05;100180.69;5054381;28;20201;-61
2023/03/23 00:32:01;;;;;;;10.97;9.97;;;13.30;92.10;;;15.56;66.08;100173.31;5054091;28;20198;-61
2023/03/23 00:34:33;;;;;;;11.97;10.93;;;13.30;92.00;;;15.62;66.00;100168.97;5054749;28;20739;-60
2023/03/23 00:37:00;;;;;;;11.83;10.83;;;13.30;92.10;;;15.57;65.96;100159.81;5054193;28;20229;-60
2023/03/23 00:39:28;;;;;;;12.00;11.00;;;13.30;92.10;;;15.53;66.21;100157.81;5055010;28;20193;-62
2023/03/23 00:42:00;;;;;;;11.10;10.13;;;13.30;92.00;;;15.47;66.10;100150.75;5059457;28;20221;-61
2023/03/23 00:44:28;;;;;;;10.50;9.57;;;13.30;92.00;;;15.50;66.56;100153.78;5054798;28;20210;-61
2023/03/23 00:46:56;;;;;;;11.70;10.37;;;13.30;92.00;;;15.47;66.43;100150.75;5055163;28;20244;-60
2023/03/23 00:49:25;;;;;;;12.13;11.20;;;13.30;91.90;;;15.49;66.33;100152.16;5055329;28;20259;-63
2023/03/23 00:51:51;;;;;;;11.20;10.20;;;13.30;92.00;;;15.55;66.24;100139.84;5054758;28;20236;-60
2023/03/23 00:54:17;;;;;;;9.73;8.93;;;13.30;92.00;;;15.59;66.38;100141.81;5054352;28;20221;-60
2023/03/23 00:56:43;;;;;;;11.83;10.83;;;13.30;92.00;;;15.66;65.63;100141.78;5054529;28;20186;-63
2023/03/23 00:59:09;;;;;;;11.80;10.73;;;13.30;92.00;;;15.65;65.52;100144.63;5062485;28;20200;-61
2023/03/23 01:01:35;;;;;;;11.30;10.30;;;13.40;92.30;;;15.65;65.95;100134.03;5054721;28;20540;-62
2023/03/23 01:04:04;;;;;;;10.20;9.40;;;13.30;91.90;;;15.61;66.05;100132.84;5054214;28;20801;-62
2023/03/23 01:06:34;;;;;;;10.17;9.30;;;13.40;92.00;;;15.63;65.96;100123.63;5052741;28;20240;-62
2023/03/23 01:09:03;;;;;;;10.63;9.67;;;13.30;92.00;;;15.59;65.97;100117.16;5054800;28;20269;-60
2023/03/23 01:11:29;;;;;;;9.80;8.90;;;13.40;92.00;;;15.66;66.16;100115.25;5054651;28;20244;-61
2023/03/23 01:13:55;;;;;;;10.03;9.13;;;13.40;91.90;;;15.70;65.74;100116.41;5056905;28;20225;-62
2023/03/23 01:16:22;;;;;;;10.77;9.77;;;13.40;92.00;;;15.65;66.40;100113.59;5073185;28;20245;-60
2023/03/23 01:18:47;;;;;;;10.60;9.60;;;13.40;92.00;;;15.73;65.63;100120.47;5072691;28;20275;-61
2023/03/23 01:21:18;;;;;;;11.27;9.70;;;13.40;92.00;;;15.77;65.21;100106.53;5073209;28;20280;-62
2023/03/23 01:23:44;;;;;;;11.13;10.07;;;13.40;92.00;;;15.83;65.28;100113.56;5053782;28;20263;-63
2023/03/23 01:26:13;;;;;;;9.83;8.93;;;13.40;92.00;;;15.83;65.37;100115.44;5053342;28;20217;-59
2023/03/23 01:28:40;;;;;;;10.90;9.37;;;13.40;91.90;;;15.72;65.88;100130.25;5053199;28;20194;-61
2023/03/23 01:31:09;;;;;;;11.03;10.03;;;13.40;92.00;;;15.70;65.97;100121.72;5052952;28;20218;-60
2023/03/23 01:33:35;;;;;;;11.17;10.17;;;13.40;92.10;;;15.66;66.16;100114.44;5053558;28;20214;-60
2023/03/23 01:36:04;;;;;;;10.37;9.37;;;13.40;92.10;;;15.65;66.07;100118.09;5053052;28;20263;-60
2023/03/23 01:38:33;;;;;;;11.13;10.13;;;13.40;92.10;;;15.62;66.67;100107.97;5052902;28;20194;-64
2023/03/23 01:40:59;;;;;;;13.27;10.30;;;13.40;92.10;;;15.62;66.10;100103.44;5053938;28;20194;-62
2023/03/23 01:43:26;;;;;;;11.10;9.97;;;13.40;92.20;;;15.56;66.65;100101.69;5052545;28;20517;-61
2023/03/23 01:45:52;;;;;;;12.03;10.93;;;13.40;92.20;;;15.58;66.66;100097.78;5036310;28;20224;-63
2023/03/23 01:48:25;;;;;;;12.37;10.93;;;13.40;92.20;;;15.63;66.32;100107.72;5052794;28;20190;-63
2023/03/23 01:50:58;;;;;;;11.67;10.40;;;13.40;92.20;;;15.59;66.07;100098.59;5067054;28;20190;-61
2023/03/23 01:53:30;;;;;;;11.33;10.37;;;13.40;92.20;;;15.64;66.40;100093.44;5053189;28;20205;-59
2023/03/23 01:56:00;;;;;;;12.80;11.50;;;13.40;92.20;;;15.65;66.41;100092.38;5069774;28;20185;-62
2023/03/23 01:58:31;;;;;;;13.80;12.43;;;13.40;92.30;;;15.66;66.08;100099.31;5054230;28;20214;-61
2023/03/23 02:01:03;;;;;;;13.10;12.00;;;13.40;92.20;;;15.72;66.13;100097.59;5052878;28;20190;-61
2023/03/23 02:03:31;;;;;;;11.77;10.70;;;13.40;92.30;;;15.75;65.80;100097.97;5036654;28;20181;-61
2023/03/23 02:05:58;;;;;;;12.07;10.97;;;13.40;92.20;;;15.77;65.71;100090.59;5056011;28;20224;-63
2023/03/23 02:08:27;;;;;;;13.37;12.13;;;13.40;92.20;;;15.80;65.33;100090.16;5073767;28;20196;-60
2023/03/23 02:10:54;;;;;;;11.77;10.70;;;13.40;92.10;;;15.71;65.81;100085.38;5073521;28;20241;-61
2023/03/23 02:13:22;;;;;;;12.13;10.97;;;13.40;92.10;;;15.68;66.06;100080.53;5073572;28;20193;-61
2023/03/23 02:16:03;;;;;;;11.87;10.77;;;13.40;92.00;;;15.58;65.94;100078.41;5075329;28;20193;-62
2023/03/23 02:18:51;;;;;;;11.83;10.73;;;13.40;92.00;;;15.63;66.06;100073.22;5080484;28;20676;-61
2023/03/23 02:22:14;;;;;;;12.07;10.83;;;13.50;92.00;;;15.64;65.76;100069.56;5079391;28;20664;-60
2023/03/23 02:25:18;;;;;;;12.17;10.00;;;13.50;91.90;;;15.75;65.52;100055.53;5071835;28;20217;-61
2023/03/23 02:28:07;;;;;;;11.37;10.37;;;13.50;91.80;;;15.78;65.43;100049.78;5072252;28;20181;-59
2023/03/23 02:31:16;;;;;;;12.03;10.77;;;13.50;91.70;;;15.80;65.25;100044.22;5072358;28;20223;-60
2023/03/23 02:33:54;;;;;;;11.93;10.83;;;13.60;91.70;;;15.82;64.89;100037.66;5073175;28;20274;-60
2023/03/23 02:36:28;;;;;;;12.53;11.47;;;13.50;91.60;;;15.79;65.05;100043.41;5073345;28;20187;-61
2023/03/23 02:39:03;;;;;;;12.03;10.93;;;13.50;91.60;;;15.78;65.12;100049.78;5055864;28;20182;-59
2023/03/23 02:41:36;;;;;;;11.33;10.33;;;13.50;91.50;;;15.82;65.22;100044.81;5070950;28;20516;-59
2023/03/23 02:44:05;;;;;;;11.27;10.27;;;13.50;91.50;;;15.84;64.97;100056.81;5073354;28;20274;-62
2023/03/23 02:46:34;;;;;;;11.43;10.33;;;13.60;91.50;;;15.92;64.71;100050.38;5074380;28;20224;-62
2023/03/23 02:49:06;;;;;;;12.03;10.90;;;13.60;91.50;;;15.97;64.41;100038.06;5062903;28;20200;-60
2023/03/23 02:51:35;;;;;;;12.33;11.13;;;13.60;91.40;;;15.98;64.30;100023.75;5055952;28;20277;-63
2023/03/23 02:54:05;;;;;;;14.40;11.47;;;13.60;91.30;;;15.98;64.13;100010.47;5055907;28;20202;-59
2023/03/23 02:56:34;;;;;;;13.03;11.83;;;13.60;91.30;;;15.89;64.27;100003.88;5056174;28;20182;-61
2023/03/23 02:59:01;;;;;;;11.77;10.70;;;13.60;91.20;;;15.86;64.43;99990.22;5071158;28;20205;-60
2023/03/23 03:02:02;;;;;;;15.60;11.47;;;13.60;91.20;;;15.62;64.61;99992.00;5077173;28;20196;-62
2023/03/23 03:04:33;;;;;;;12.50;11.23;;;13.50;91.10;;;15.57;65.13;99989.22;5079139;28;20267;-62
2023/03/23 03:07:24;;;;;;;11.23;10.13;;;13.50;91.10;;;15.45;65.55;100004.31;5091880;28;20178;-62
2023/03/23 03:09:56;;;;;;;10.90;9.80;;;13.50;91.20;;;15.38;65.76;99996.38;5076875;28;20180;-61
2023/03/23 03:12:34;;;;;;;11.73;10.73;;;13.40;91.10;;;15.47;65.40;99988.97;5059182;28;20225;-59
2023/03/23 03:15:14;;;;;;;11.00;9.90;;;13.50;91.10;;;15.41;65.46;99971.25;5058171;28;20229;-60
2023/03/23 03:17:48;;;;;;;10.57;9.57;;;13.50;91.10;;;15.45;65.33;99965.31;5076708;28;20184;-62
2023/03/23 03:20:16;;;;;;;11.67;10.47;;;13.50;91.00;;;15.49;64.95;99963.84;5075559;28;20184;-60
2023/03/23 03:22:46;;;;;;;10.87;9.87;;;13.50;91.00;;;15.51;64.82;99969.72;5075155;28;20247;-62
2023/03/23 03:25:15;;;;;;;10.93;9.47;;;13.40;91.00;;;15.65;64.65;99967.69;5074875;28;20217;-63
2023/03/23 03:27:45;;;;;;;11.63;10.43;;;13.50;91.00;;;15.67;64.55;99957.66;5076417;28;20227;-61
2023/03/23 03:30:20;;;;;;;11.67;10.57;;;13.50;91.00;;;15.66;64.42;99956.06;5061486;28;20693;-62
2023/03/23 03:32:53;;;;;;;9.57;8.43;;;13.50;90.90;;;15.81;63.96;99975.00;5055052;28;20220;-61
2023/03/23 03:35:23;;;;;;;9.57;8.77;;;13.50;90.90;;;15.96;63.48;99985.19;5056131;28;20581;-60
2023/03/23 03:37:50;;;;;;;11.40;10.20;;;13.60;90.90;;;15.89;63.37;99964.06;5055511;28;20198;-66
2023/03/23 03:40:20;;;;;;;10.53;9.63;;;13.50;90.70;;;15.89;63.28;99961.41;5055174;28;20619;-63
2023/03/23 03:42:47;;;;;;;10.77;9.80;;;13.60;90.70;;;15.91;63.63;99964.63;5056902;28;20198;-61
2023/03/23 03:45:16;;;;;;;9.83;8.93;;;13.60;90.60;;;15.93;63.71;99981.16;5053533;28;20213;-61
2023/03/23 03:47:42;;;;;;;10.80;9.63;;;13.60;90.60;;;15.92;63.38;99982.19;5056068;28;20818;-61
2023/03/23 03:50:09;;;;;;;10.57;9.53;;;13.60;90.90;;;15.94;63.64;99980.13;5056245;28;20256;-65
2023/03/23 03:52:38;;;;;;;9.13;8.33;;;13.60;90.50;;;16.01;63.21;99975.50;5057696;28;20194;-62
2023/03/23 03:55:05;;;;;;;10.60;9.60;;;13.60;90.50;;;15.99;63.18;99979.44;5054821;28;20626;-60
2023/03/23 03:57:31;;;;;;;10.10;9.20;;;13.70;90.50;;;16.07;62.78;99985.19;5055291;28;20204;-63
2023/03/23 03:59:57;;;;;;;9.20;8.30;;;13.70;90.40;;;16.15;62.32;99970.78;5055236;28;20190;-62
2023/03/23 04:02:23;;;;;;;11.07;9.97;;;13.70;90.40;;;16.18;62.33;99976.47;5055622;28;20193;-60
2023/03/23 04:04:52;;;;;;;10.30;9.40;;;13.70;90.50;;;16.15;62.49;99976.91;5055433;28;20634;-60
2023/03/23 04:07:18;;;;;;;10.80;9.70;;;13.70;90.30;;;16.15;62.40;99986.72;5061963;28;20589;-62
2023/03/23 04:09:47;;;;;;;9.77;8.80;;;13.70;90.30;;;16.11;62.25;99974.94;5055452;28;20606;-60
2023/03/23 04:12:13;;;;;;;9.23;8.37;;;13.70;90.20;;;16.02;62.41;99977.13;5056108;28;20201;-60
2023/03/23 04:14:39;;;;;;;9.03;8.23;;;13.70;90.20;;;16.01;62.38;99980.81;5074607;28;20259;-60
2023/03/23 04:17:08;;;;;;;9.10;8.27;;;13.70;90.10;;;16.02;62.74;99966.50;5075393;28;20189;-60
2023/03/23 04:19:36;;;;;;;8.83;7.93;;;13.70;90.10;;;16.05;62.53;99979.31;5074422;28;20197;-62
2023/03/23 04:22:03;;;;;;;9.03;7.87;;;13.70;90.10;;;16.12;62.04;99964.09;5074524;28;20232;-60
2023/03/23 04:24:32;;;;;;;7.97;7.17;;;13.70;90.00;;;16.12;61.93;99965.94;5073804;28;20297;-61
2023/03/23 04:27:00;;;;;;;8.37;7.57;;;13.70;90.00;;;16.15;62.21;99966.28;5074696;28;20563;-61
2023/03/23 04:29:26;;;;;;;8.93;7.23;;;13.80;90.00;;;16.17;62.01;99966.88;5073973;28;20196;-62
2023/03/23 04:31:52;;;;;;;8.30;6.93;;;13.80;90.00;;;16.19;61.75;99971.94;5075233;28;20205;-59
2023/03/23 04:34:18;;;;;;;8.67;7.00;;;13.80;89.80;;;16.25;61.44;99971.03;5073323;28;20600;-61
2023/03/23 04:36:46;;;;;;;6.60;5.97;;;13.80;89.70;;;16.28;61.22;99970.59;5090945;28;20228;-60
2023/03/23 04:39:13;;;;;;;8.73;7.00;;;13.80;89.50;;;16.34;61.08;99980.28;5073875;28;20189;-58
2023/03/23 04:41:39;;;;;;;8.60;6.00;;;13.80;89.40;;;16.36;60.65;99972.06;5054667;28;21830;-62
2023/03/23 04:44:07;;;;;;;6.87;6.17;;;13.80;89.10;;;16.40;60.57;99967.94;5050055;28;20214;-61
2023/03/23 04:46:33;;;;;;;6.27;5.67;;;13.80;88.80;;;16.41;60.38;99965.03;5053933;28;20206;-61
2023/03/23 04:48:59;;;;;;;7.63;6.47;;;13.90;88.70;;;16.38;60.24;99964.69;5070274;28;20201;-62
2023/03/23 04:51:26;;;;;;;7.47;5.33;;;13.90;88.50;;;16.39;60.28;99958.31;5053748;28;20182;-60
2023/03/23 04:53:52;;;;;;;6.23;5.63;;;13.90;88.30;;;16.41;60.41;99950.94;5036813;28;20291;-60
2023/03/23 04:56:19;;;;;;;5.83;5.20;;;13.90;88.20;;;16.47;60.29;99950.03;5064659;28;20189;-62
2023/03/23 04:58:46;;;;;;;5.90;5.30;;;13.90;88.10;;;16.42;60.09;99955.22;5090561;28;20215;-62
2023/03/23 05:01:13;;;;;;;6.60;5.10;;;13.90;88.00;;;16.34;60.04;99969.66;5074520;28;20189;-61
2023/03/23 05:03:39;;;;;;;6.97;5.73;;;13.90;87.90;;;16.24;60.23;99959.59;5073630;28;20249;-62
2023/03/23 05:06:06;;;;;;;5.50;5.00;;;13.90;87.90;;;16.30;60.20;99967.69;5072948;28;20216;-62
2023/03/23 05:08:33;;;;;;;8.90;6.67;;;13.90;87.80;;;16.33;60.44;99967.22;5073070;28;20655;-62
2023/03/23 05:11:00;;;;;;;9.50;6.63;;;13.90;87.80;;;16.37;60.40;99961.22;5070688;28;20244;-61
2023/03/23 05:13:28;;;;;;;6.33;5.30;;;13.90;87.80;;;16.34;60.08;99969.66;5054490;28;20293;-59
2023/03/23 05:15:54;;;;;;;6.70;5.73;;;13.90;87.80;;;16.30;60.20;99962.38;5073350;28;20280;-62
2023/03/23 05:18:22;;;;;;;5.40;4.90;;;13.90;87.80;;;16.34;60.34;99969.66;5074683;28;20276;-61
2023/03/23 05:20:52;;;;;;;5.07;4.57;;;13.90;87.70;;;16.45;60.05;99955.53;5072978;28;20201;-61
2023/03/23 05:23:33;;;;;;;6.80;5.20;;;14.00;87.90;;;16.45;59.91;99960.06;5064841;28;20209;-61
2023/03/23 05:26:02;;;;;;;5.17;4.77;;;14.00;87.90;;;16.39;60.19;99964.47;5072452;28;20295;-61
2023/03/23 05:28:30;;;;;;;7.40;5.40;;;13.90;87.60;;;16.38;60.13;99954.06;5056623;28;20198;-65
2023/03/23 05:31:01;;;;;;;6.20;4.90;;;14.00;87.80;;;16.38;60.13;99943.44;5059317;28;20209;-61
2023/03/23 05:33:29;;;;;;;5.90;5.30;;;14.00;87.40;;;16.48;60.01;99951.63;5052976;28;20198;-63
2023/03/23 05:35:55;;;;;;;6.53;5.20;;;14.00;87.50;;;16.53;59.69;99946.47;5052801;28;20189;-58
2023/03/23 05:38:22;;;;;;;5.50;5.00;;;14.10;87.60;;;16.53;59.62;99941.16;5036953;28;20232;-62
2023/03/23 05:40:48;;;;;;;6.77;5.23;;;14.10;87.60;;;16.53;60.02;99933.16;5059101;28;20209;-61
2023/03/23 05:43:14;;;;;;;6.43;5.77;;;14.10;87.60;;;16.45;60.14;99928.97;5069625;28;20201;-64
2023/03/23 05:45:41;;;;;;;6.03;5.43;;;14.10;87.50;;;16.37;60.31;99931.19;5073700;28;20276;-59
2023/03/23 05:48:07;;;;;;;6.13;5.57;;;14.00;87.30;;;16.32;60.03;99939.03;5073185;28;20280;-62
2023/03/23 05:50:34;;;;;;;8.67;6.20;;;14.10;87.30;;;16.11;60.52;99935.13;5074009;28;20211;-62
2023/03/23 05:53:00;;;;;;;7.03;5.53;;;14.00;87.20;;;16.18;60.60;99939.28;5073799;28;20741;-60
2023/03/23 05:55:26;;;;;;;6.20;5.60;;;14.00;87.40;;;16.24;60.37;99943.66;5080034;28;20297;-62
2023/03/23 05:57:52;;;;;;;5.30;4.80;;;14.00;86.80;;;16.22;60.44;99944.94;5052992;28;20280;-63
2023/03/23 06:00:19;;;;;;;6.37;5.70;;;14.00;86.80;;;16.24;60.38;99959.59;5069195;28;20237;-60
2023/03/23 06:02:47;;;;;;;6.23;5.63;;;14.00;86.60;;;16.36;59.84;99958.78;5076657;28;20536;-62
2023/03/23 06:05:15;;;;;;;6.27;5.67;;;14.00;86.50;;;16.36;59.76;99961.44;5077606;28;20229;-62
2023/03/23 06:07:43;;;;;;;6.20;5.70;;;14.00;86.30;;;16.41;59.71;99956.25;5079572;28;20217;-62
2023/03/23 06:10:14;;;;;;;8.27;5.10;;;14.10;86.30;;;16.46;59.11;99956.38;5067487;28;20193;-62
2023/03/23 06:12:44;;;;;;;5.13;4.70;;;14.00;86.10;;;16.52;58.83;99958.13;5035807;28;20621;-63
2023/03/23 06:15:11;;;;;;;5.47;5.07;;;14.10;86.20;;;16.59;58.70;99950.84;5083096;28;20214;-63
2023/03/23 06:17:37;;;;;;;6.17;5.00;;;14.10;86.20;;;16.61;58.51;99948.78;5073634;28;20189;-62
2023/03/23 06:20:10;;;;;;;5.37;4.90;;;14.10;85.90;;;16.58;58.76;99967.81;5075616;28;20280;-61
2023/03/23 06:22:37;;;;;;;5.47;4.80;;;14.10;85.70;;;16.58;58.41;99959.84;5078920;28;20254;-64
2023/03/23 06:25:07;;;;;;;6.13;4.43;;;14.10;85.50;;;16.60;58.59;99963.91;5076852;28;20578;-61
2023/03/23 06:27:33;;;;;;;4.93;4.20;;;14.10;85.40;;;16.67;58.38;99961.09;5058761;28;20227;-60
2023/03/23 06:29:59;;;;;;;4.80;4.27;;;14.20;85.60;;;16.72;58.47;99964.69;5056765;28;20194;-61
2023/03/23 06:32:29;;;;;;;4.60;4.07;;;14.20;85.50;;;16.81;57.63;99960.63;5057344;28;20197;-59
2023/03/23 06:34:56;;;;;;;6.43;4.33;;;14.20;85.20;;;16.76;58.01;99967.69;5057197;28;20249;-60
2023/03/23 06:37:24;;;;;;;5.23;4.60;;;14.20;85.00;;;16.86;58.00;99975.88;5057163;28;20209;-60
2023/03/23 06:39:51;;;;;;;4.83;4.37;;;14.30;85.00;;;16.95;57.49;99976.34;5070032;28;20201;-62
2023/03/23 06:42:19;;;;;;;4.97;4.43;;;14.30;85.00;;;16.89;57.33;99978.06;5078531;28;20212;-63
2023/03/23 06:44:45;;;;;;;4.77;4.23;;;14.30;84.70;;;16.78;58.05;99979.69;5075684;28;20244;-65
2023/03/23 06:47:11;;;;;;;4.43;4.03;;;14.30;84.60;;;16.81;58.16;99981.06;5059853;28;20277;-61
2023/03/23 06:49:37;;;;;;;5.57;4.30;;;14.40;84.80;;;16.67;58.29;99990.34;5077473;28;20295;-61
2023/03/23 06:52:07;;;;;;;4.40;4.10;;;14.40;84.90;;;16.72;58.52;99977.16;5076225;28;20242;-62
2023/03/23 06:54:33;;;;;;;6.00;5.03;;;14.40;85.00;;;16.81;58.43;99986.41;5044589;28;20217;-61
2023/03/23 06:56:59;;;;;;;5.30;4.87;;;14.40;85.10;;;16.94;58.32;99983.50;5059476;28;20193;-64
2023/03/23 06:59:27;;;;;;;5.17;4.77;;;14.50;85.20;;;16.94;58.35;99980.84;5077822;28;20585;-59
2023/03/23 07:01:53;;;;;;;6.20;4.87;;;14.50;85.30;;;16.84;58.54;99976.13;5076033;28;20184;-62
2023/03/23 07:04:19;;;;;;;6.50;5.90;;;14.50;85.40;;;16.92;58.59;99989.03;5076955;28;20209;-61
2023/03/23 07:06:46;;;;;;;6.00;5.50;;;14.50;85.60;;;16.96;58.77;99992.03;5075337;28;20229;-61
2023/03/23 07:09:12;;;;;;;5.63;4.80;;;14.50;85.70;;;17.12;58.30;99999.28;5076038;28;20250;-61
2023/03/23 07:11:38;;;;;;;5.43;4.90;;;14.60;85.90;;;17.26;58.29;99990.00;5076449;28;20196;-61
2023/03/23 07:14:04;;;;;;;5.57;5.07;;;14.60;86.20;;;17.43;57.89;100000.69;5075037;28;20303;-63
2023/03/23 07:16:32;;;;;;;5.07;4.67;;;14.70;86.20;;;17.51;57.78;99998.50;5077543;28;20281;-62
2023/03/23 07:18:58;;;;;;;5.80;5.20;;;14.80;86.20;;;17.56;57.67;99995.13;5076670;28;20193;-61
2023/03/23 07:21:24;;;;;;;5.70;4.80;;;14.80;86.10;;;17.50;57.85;100001.34;5092822;28;20181;-61
2023/03/23 07:23:50;;;;;;;5.07;4.57;;;14.80;86.20;;;17.47;58.12;100005.28;5068732;28;20221;-61
2023/03/23 07:26:16;;;;;;;5.27;4.77;;;14.80;86.40;;;17.39;58.20;100013.69;5056368;28;20206;-60
2023/03/23 07:28:42;;;;;;;5.60;5.10;;;14.80;86.70;;;17.35;58.37;100003.75;5058713;28;20545;-61
2023/03/23 07:31:09;;;;;;;5.80;5.27;;;14.80;87.10;;;17.31;59.17;100061.09;5059778;28;20221;-61
2023/03/23 07:33:37;;;;;;;5.23;4.33;;;14.70;87.30;;;17.16;59.41;100053.66;5060305;28;20222;-63
2023/03/23 07:36:04;;;;;;;6.33;4.83;;;14.70;87.70;;;17.02;59.83;100067.41;5077389;28;20194;-61
2023/03/23 07:38:30;;;;;;;4.67;4.27;;;14.60;88.10;;;16.86;60.30;100060.94;5058105;28;20194;-61
2023/03/23 07:40:57;;;;;;;5.10;4.70;;;14.40;89.10;;;16.76;60.50;100050.88;5055386;28;20204;-60
2023/03/23 07:43:23;;;;;;;4.03;3.57;;;14.30;89.20;;;16.70;60.67;100069.63;5056481;28;20200;-63
2023/03/23 07:45:49;;;;;;;5.13;3.43;;;14.20;89.50;;;16.63;60.61;100069.72;5055806;28;20273;-63
2023/03/23 07:48:15;;;;;;;3.33;3.00;;;14.10;89.80;;;16.62;60.85;100075.25;5038327;28;20200;-63
2023/03/23 07:50:43;;;;;;;3.67;2.27;;;14.00;90.00;;;16.52;60.57;100061.75;5038422;28;20210;-62
2023/03/23 07:53:10;;;;;;;2.43;2.23;;;13.90;89.50;;;16.46;60.70;100052.00;5069604;28;20202;-60
2023/03/23 07:55:37;;;;;;;2.93;2.33;;;13.80;89.30;;;16.39;60.62;100054.78;5055687;28;20209;-62
2023/03/23 07:58:03;;;;;;;2.57;2.20;;;13.80;89.40;;;16.34;60.76;100059.13;5071323;28;20201;-61
2023/03/23 08:00:29;;;;;;;3.27;2.37;;;13.70;89.30;;;16.32;60.74;100066.53;5054791;28;20198;-60
2023/03/23 08:02:57;;;;;;;3.43;2.53;;;13.60;89.40;;;16.33;60.83;100081.44;5054742;28;20193;-61
2023/03/23 08:05:26;;;;;;;2.70;2.37;;;13.60;89.80;;;16.35;60.67;100074.06;5054053;28;20232;-64
2023/03/23 08:07:54;;;;;;;3.57;2.57;;;13.60;89.80;;;16.35;60.60;100087.34;5071824;28;20540;-60
2023/03/23 08:10:32;;;;;;;3.07;2.77;;;13.60;89.80;;;16.32;60.37;100087.78;5075033;28;20182;-64
2023/03/23 08:13:10;;;;;;;2.03;1.80;;;13.60;89.60;;;16.31;60.57;100080.88;5029164;28;20294;-62
2023/03/23 08:15:37;;;;;;;2.83;2.07;;;13.50;89.50;;;16.30;60.37;100096.00;5072444;28;20291;-63
2023/03/23 08:18:05;;;;;;;3.40;2.30;;;13.50;89.60;;;16.32;60.35;100093.09;5041299;28;20197;-62
2023/03/23 08:20:32;;;;;;;2.03;1.80;;;13.50;89.60;;;16.26;60.36;100100.94;5073249;28;20209;-63
2023/03/23 08:23:01;;;;;;;4.57;2.10;;;13.50;89.50;;;16.19;60.45;100107.38;5055296;28;20190;-61
2023/03/23 08:25:31;;;;;;;5.27;1.70;;;13.50;89.30;;;16.22;60.49;100110.38;5055338;28;20216;-63
2023/03/23 08:27:58;;;;;;;4.97;2.37;;;13.60;89.40;;;16.23;60.48;100089.97;5055056;28;20200;-65
2023/03/23 08:30:25;;;;;;;5.57;2.10;;;13.60;90.10;;;16.21;60.59;100098.13;5054559;28;20197;-61
2023/03/23 08:32:55;;;;;;;2.90;1.80;;;13.50;89.40;;;16.18;60.41;100103.94;5066478;28;20280;-63
2023/03/23 08:35:21;;;;;;;5.80;2.23;;;13.50;89.40;;;16.18;60.67;100109.22;5074234;28;20300;-64
2023/03/23 08:37:50;;;;;;;6.13;2.27;;;13.50;89.30;;;16.19;60.74;100110.03;5057994;28;20194;-60
2023/03/23 08:40:21;;;;;;;7.73;2.60;;;13.50;89.40;;;16.20;60.58;100101.84;5042688;28;20682;-61
2023/03/23 08:42:49;;;;;;;5.57;2.60;;;13.50;89.70;;;16.22;60.78;100102.44;5065839;28;20188;-61
2023/03/23 08:45:20;;;;;;;5.53;2.50;;;13.50;89.80;;;16.25;60.31;100104.63;5072711;28;20756;-62
2023/03/23 08:47:51;;;;;;;5.83;2.67;;;13.50;89.90;;;16.32;60.54;100106.38;5070704;28;20198;-61
2023/03/23 08:50:22;;;;;;;7.37;2.30;;;13.50;90.00;;;16.36;60.54;100110.19;5041129;28;20636;-61
2023/03/23 08:52:49;;;;;;;8.57;2.87;;;13.60;89.80;;;16.44;60.57;100105.38;5074084;28;20189;-64
2023/03/23 08:55:17;;;;;;;6.17;2.30;;;13.60;89.70;;;16.55;60.40;100107.25;5070465;28;20300;-61
2023/03/23 08:57:45;;;;;;;6.63;2.60;;;13.70;89.60;;;16.68;60.24;100124.84;5037379;28;20216;-62
2023/03/23 09:00:20;;;;;;;7.00;2.33;;;13.80;89.60;;;16.75;59.94;100115.72;5055456;28;20216;-62
2023/03/23 09:02:56;;;;;;;6.23;2.23;;;13.90;89.40;;;16.79;59.55;100111.56;5053663;28;20236;-65
2023/03/23 09:05:26;;;;;;;6.60;2.17;;;13.90;88.70;;;16.79;59.69;100105.44;5041635;28;20255;-63
2023/03/23 09:07:58;;;;;;;5.87;2.37;;;14.00;88.60;;;16.84;59.66;100113.53;5070984;28;20272;-63
2023/03/23 09:10:26;;;;;;;4.80;2.23;;;14.00;88.60;;;16.92;59.43;100121.19;5069685;28;20188;-63
2023/03/23 09:12:54;;;;;;;5.60;2.43;;;14.00;88.60;;;16.97;59.38;100123.94;5055679;28;20224;-61
2023/03/23 09:15:22;;;;;;;5.20;2.67;;;14.10;88.70;;;17.00;59.30;100123.47;5069706;28;20236;-62
2023/03/23 09:17:51;;;;;;;6.83;3.00;;;14.20;88.60;;;17.01;59.15;100114.47;5070716;28;20205;-61
2023/03/23 09:20:22;;;;;;;6.00;2.60;;;14.20;88.30;;;17.02;59.13;100115.28;5065417;28;20203;-62
2023/03/23 09:22:52;;;;;;;4.00;2.67;;;14.20;88.20;;;17.02;58.92;100121.38;5073778;28;20181;-60
2023/03/23 09:25:25;;;;;;;5.87;2.90;;;14.20;87.90;;;17.00;59.15;100134.09;5066734;28;20211;-61
2023/03/23 09:27:57;;;;;;;8.87;3.37;;;14.20;87.90;;;17.02;59.05;100137.34;5074642;28;20242;-60
2023/03/23 09:30:26;;;;;;;8.30;3.03;;;14.20;88.10;;;17.08;59.33;100135.63;5075958;28;20238;-61
2023/03/23 09:32:53;;;;;;;6.20;3.20;;;14.20;88.10;;;16.97;59.47;100144.41;5071216;28;20201;-62
2023/03/23 09:35:21;;;;;;;6.40;2.47;;;14.30;88.00;;;16.98;59.41;100140.69;5071280;28;20213;-61
2023/03/23 09:37:50;;;;;;;6.20;2.63;;;14.30;87.70;;;17.01;59.07;100119.78;5035580;28;20221;-62
2023/03/23 09:40:20;;;;;;;6.13;2.97;;;14.30;87.40;;;17.11;59.04;100120.03;5054297;28;20185;-62
2023/03/23 09:43:10;;;;;;;3.70;2.10;;;14.40;87.70;;;17.17;58.31;100123.56;5054750;28;20265;-62
2023/03/23 09:45:51;;;;;;;4.77;2.20;;;14.40;87.50;;;17.24;58.43;100140.22;5071996;28;20233;-62
2023/03/23 09:48:38;;;;;;;6.83;2.20;;;14.50;87.00;;;17.29;58.14;100143.81;5072749;28;20199;-64
2023/03/23 09:51:20;;;;;;;3.23;1.73;;;14.50;86.80;;;17.34;57.56;100141.28;5072437;28;20197;-64
2023/03/23 09:53:57;;;;;;;3.97;2.50;;;14.60;86.20;;;17.18;57.20;100135.84;5069973;28;20217;-62
2023/03/23 09:56:27;;;;;;;3.33;1.67;;;14.60;84.70;;;17.24;57.47;100141.03;5053739;28;20204;-60
2023/03/23 09:59:02;;;;;;;7.33;2.80;;;14.60;85.20;;;17.39;57.15;100152.03;5086652;28;20544;-62
2023/03/23 10:01:35;;;;;;;4.37;2.10;;;14.60;85.30;;;17.73;57.32;100145.06;5052744;28;20216;-60
2023/03/23 10:04:11;;;;;;;4.67;2.60;;;14.70;85.80;;;18.06;56.13;100144.38;5053790;28;20205;-62
2023/03/23 10:06:38;;;;;;;5.43;2.43;;;14.90;85.20;;;18.28;55.18;100143.44;5055109;28;20209;-61
2023/03/23 10:09:09;;;;;;;6.70;2.47;;;15.00;84.00;;;18.44;55.13;100157.84;5073192;28;20249;-62
2023/03/23 10:11:53;;;;;;;4.77;2.00;;;15.20;84.00;;;18.55;54.49;100172.19;5070360;28;20205;-61
2023/03/23 10:14:47;;;;;;;7.33;2.77;;;15.30;83.40;;;18.49;53.65;100175.81;5059885;28;20229;-63
2023/03/23 10:17:20;;;;;;;4.93;1.90;;;15.40;81.90;;;18.66;54.22;100182.78;5070093;28;20240;-63
2023/03/23 10:19:55;;;;;;;10.17;3.40;;;15.60;82.30;;;19.03;53.50;100184.97;5071649;28;20199;-61
2023/03/23 10:22:29;;;;;;;8.90;3.30;;;15.70;82.60;;;19.33;52.94;100185.44;5072893;28;20203;-62